This is the latest recevied weather packets stored in our database for station/object OE-11149. If no packets are shown the sender has not sent any weather packets the latest 10 day(s).
| Time | Temp. | Humidity | Pressure | Rain* | Wind** | Luminosity | Snow |
|---|---|---|---|---|---|---|---|
| 1787726731 | 13.33° C | 67% | 854.1 hPa | 0 mm | - | 113 W/m² | - |
| 1787726120 | 13.33° C | 67% | 854.1 hPa | 0 mm | - | 126 W/m² | - |
| 1787725520 | 12.78° C | 71% | 854 hPa | 0 mm | - | 139 W/m² | - |
| 1787724692 | 12.78° C | 69% | 854 hPa | 0 mm | - | 132 W/m² | - |
| 1787724320 | 12.78° C | 69% | 854 hPa | 0 mm | - | 86 W/m² | - |
| 1787723719 | 12.22° C | 70% | 853.8 hPa | 0 mm | - | 53 W/m² | - |
| 1787722892 | 12.22° C | 70% | 853.7 hPa | 0 mm | - | 46 W/m² | - |
| 1787722520 | 11.67° C | 71% | 853.7 hPa | 0 mm | - | 40 W/m² | - |
| 1787721920 | 11.11° C | 74% | 853.7 hPa | 0 mm | - | 26 W/m² | - |
| 1787721092 | 11.67° C | 70% | 853.7 hPa | 0 mm | - | 33 W/m² | - |
| 1787720720 | 12.22° C | 68% | 853.6 hPa | 0 mm | - | 26 W/m² | - |
| 1787720120 | 11.67° C | 70% | 853.7 hPa | 0 mm | - | 13 W/m² | - |
| 1787719292 | 12.22° C | 68% | 853.7 hPa | 0 mm | - | 7 W/m² | - |
| 1787718920 | 12.22° C | 68% | 853.7 hPa | 0 mm | - | 0 W/m² | - |
| 1787718319 | 11.11° C | 72% | 853.6 hPa | 0 mm | - | 0 W/m² | - |
| 1787717492 | 11.67° C | 69% | 853.7 hPa | 0 mm | - | 0 W/m² | - |
| 1787717120 | 11.67° C | 70% | 853.7 hPa | 0 mm | - | 0 W/m² | - |
| 1787716519 | 12.22° C | 68% | 853.6 hPa | 0 mm | - | 0 W/m² | - |
| 1787715920 | 11.67° C | 70% | 853.5 hPa | 0 mm | - | 0 W/m² | - |
| 1787715319 | 11.67° C | 71% | 853.6 hPa | 0 mm | - | 0 W/m² | - |
| 1787714720 | 11.67° C | 71% | 853.5 hPa | 0 mm | - | 0 W/m² | - |
| 1787713892 | 11.11° C | 74% | 853.5 hPa | 0 mm | - | 0 W/m² | - |
| 1787713520 | 11.11° C | 74% | 853.6 hPa | 0 mm | - | 0 W/m² | - |
| 1787712920 | 11.67° C | 72% | 853.5 hPa | 0 mm | - | 0 W/m² | - |
| 1787712092 | 11.11° C | 75% | 853.6 hPa | 0 mm | - | 0 W/m² | - |
* Rain latest hour (hover to see other rain measurements)
** Current wind speed in m/s (hover to see current wind gust speed)